McRae, GA (31055)

8:08 PM EDT on August 24, 2016 (GMT -0400)
SW of Chauncey | | Change Station

Elev 367 ft 32.08 °N, 83.10 °W | Updated 15 minutes ago

Scattered Clouds
Scattered Clouds
88.0 °F
Feels Like 91 °F
N
0.0
Wind Variable Wind from ESE

Today
High -- | Low -- °F
--% Chance of Precip.
Yesterday
High -- | Low -- °F
Precip. -- in
Pressure 30.18 in
Visibility 10.0 miles
Clouds Scattered Clouds 7500 ft
Heat Index 91 °F
Dew Point 68 °F
Humidity 51%
Rainfall 0.00 in
Snow Depth Not available.
7:02 AM 8:04 PM
Waning Gibbous, 52% visible
METAR KEZM 242355Z AUTO 07003KT 10SM SCT075 31/11 A3018 RMK AO2 T03060109 10345 20306
Pressure 30.18 in
Visibility 10.0 miles
Clouds Scattered Clouds 7500 ft
Heat Index 91 °F
Dew Point 68 °F
Humidity 51%
Rainfall 0.00 in
Snow Depth Not available.
7:02 AM 8:04 PM
Waning Gibbous, 52% visible
METAR KEZM 242355Z AUTO 07003KT 10SM SCT075 31/11 A3018 RMK AO2 T03060109 10345 20306

10-Day Weather Forecast

Almanac

Astronomy

Aug. 24, 2016 Rise Set
Actual Time
Civil Twilight
Nautical Twilight
Astronomical Twilight
Moon
Length of Visible Light
Length of Day
Tomorrow will be .
, % of the Moon is Illuminated

Today's Extremes

State Highs State Lows

Community

WunderPhotos

Upload Photos

1,934,744 photos uploaded!

WunderBlog® & News

Nearby

Air Quality

  Air Quality AQ Index Pollutant
Not available.

Snow Depth

Station Depth Elevation

Earthquake Activity

City Distance Mag. Time & Date
Minimum magnitude displayed is 2.5.

Coastal Water Temperatures

Place Temperature

Stations

Nearby Weather Stations

Station Location Temp. Windchill Dew Point Humidity Wind Precip. Elev Updated Type
                   

Watches & Warnings

There are currently no watches in effect.